Time;durP1;ratioP1;P1;durP2;ratioP2;P2;SDS_P1;SDS_P2;PMS_P1;PMS_P2;Temp;Humidity;BMP_temperature;BMP_pressure;BME280_temperature;BME280_humidity;BME280_pressure;Samples;Min_cycle;Max_cycle;Signal;HPM_P1;HPM_P2
2023/10/03 00:00:24;;;;;;;32.03;26.35;;;19.00;1.00;;;;;;5044540;28;20032;-75
2023/10/03 00:02:55;;;;;;;35.90;26.63;;;19.00;1.00;;;;;;5035687;28;20113;-75
2023/10/03 00:05:22;;;;;;;34.97;27.60;;;19.00;1.00;;;;;;5040972;28;20045;-75
2023/10/03 00:07:50;;;;;;;37.50;27.98;;;19.00;1.00;;;;;;5047981;28;20090;-75
2023/10/03 00:10:15;;;;;;;34.00;26.17;;;19.00;1.00;;;;;;5045781;28;20028;-75
2023/10/03 00:12:43;;;;;;;36.75;27.35;;;19.00;1.00;;;;;;5042068;28;20116;-75
2023/10/03 00:15:12;;;;;;;37.25;27.45;;;18.90;1.00;;;;;;5025800;28;20012;-75
2023/10/03 00:17:41;;;;;;;36.63;26.15;;;18.90;1.00;;;;;;5054021;28;20429;-75
2023/10/03 00:20:12;;;;;;;37.70;27.90;;;18.90;1.00;;;;;;5045529;28;20024;-75
2023/10/03 00:22:41;;;;;;;31.37;25.17;;;18.80;1.00;;;;;;5038588;28;20041;-75
2023/10/03 00:25:09;;;;;;;32.17;26.13;;;18.80;1.00;;;;;;5027880;28;20484;-75
2023/10/03 00:27:36;;;;;;;35.30;27.10;;;18.80;1.00;;;;;;5023383;28;20465;-75
2023/10/03 00:30:02;;;;;;;36.35;25.98;;;18.80;1.00;;;;;;5042937;28;20184;-75
2023/10/03 00:32:30;;;;;;;32.97;25.48;;;18.80;1.00;;;;;;5049953;28;20047;-75
2023/10/03 00:34:56;;;;;;;36.75;27.13;;;18.80;1.00;;;;;;5046620;28;20036;-74
2023/10/03 00:37:23;;;;;;;36.72;26.83;;;18.80;1.00;;;;;;5047246;28;20021;-75
2023/10/03 00:39:49;;;;;;;33.22;26.95;;;18.70;1.00;;;;;;5043463;28;20370;-75
2023/10/03 00:42:15;;;;;;;38.20;27.38;;;18.80;1.00;;;;;;5045186;28;20040;-75
2023/10/03 00:44:41;;;;;;;37.75;27.23;;;18.70;1.00;;;;;;5035260;28;20052;-75
2023/10/03 00:47:07;;;;;;;35.50;26.73;;;18.80;1.00;;;;;;5049254;28;20032;-74
2023/10/03 00:49:36;;;;;;;43.30;27.15;;;18.70;1.00;;;;;;5033301;28;20036;-75
2023/10/03 00:52:05;;;;;;;39.63;27.92;;;18.80;1.00;;;;;;5052939;28;20081;-75
2023/10/03 00:54:32;;;;;;;34.58;26.33;;;18.70;1.00;;;;;;5033683;28;20077;-75
2023/10/03 00:56:58;;;;;;;42.42;27.60;;;18.70;1.00;;;;;;5051780;28;20049;-76
2023/10/03 00:59:24;;;;;;;35.45;27.50;;;18.60;1.00;;;;;;5050929;28;20057;-75
2023/10/03 01:01:54;;;;;;;38.58;27.20;;;18.60;1.00;;;;;;5041440;28;20021;-75
2023/10/03 01:04:20;;;;;;;36.92;28.55;;;18.60;1.00;;;;;;5028307;28;20428;-75
2023/10/03 01:06:49;;;;;;;34.15;27.70;;;18.60;1.00;;;;;;5055802;28;20078;-75
2023/10/03 01:09:24;;;;;;;37.40;27.98;;;18.60;1.00;;;;;;5044907;28;20033;-75
2023/10/03 01:11:52;;;;;;;38.78;29.33;;;18.60;1.00;;;;;;5044092;28;20024;-75
2023/10/03 01:14:18;;;;;;;37.47;27.67;;;18.60;1.60;;;;;;5048188;28;20049;-75
2023/10/03 01:16:45;;;;;;;38.28;28.58;;;18.60;1.00;;;;;;5037940;28;20503;-75
2023/10/03 01:19:20;;;;;;;36.88;28.60;;;18.60;1.10;;;;;;5046608;28;20388;-75
2023/10/03 01:21:50;;;;;;;38.40;29.25;;;18.60;1.90;;;;;;5057152;28;20017;-75
2023/10/03 01:24:20;;;;;;;37.45;29.23;;;18.60;3.40;;;;;;5047027;28;20021;-75
2023/10/03 01:26:47;;;;;;;41.13;28.52;;;18.50;4.20;;;;;;5024918;28;20420;-74
2023/10/03 01:29:12;;;;;;;40.13;29.58;;;18.60;2.60;;;;;;5047372;28;20370;-75
2023/10/03 01:31:40;;;;;;;41.83;28.40;;;18.50;3.40;;;;;;5029109;28;20060;-75
2023/10/03 01:34:05;;;;;;;39.90;27.92;;;18.60;5.80;;;;;;5047175;28;20025;-75
2023/10/03 01:36:31;;;;;;;39.40;29.23;;;18.50;4.50;;;;;;5048369;28;20027;-75
2023/10/03 01:38:57;;;;;;;45.17;29.73;;;18.50;6.40;;;;;;5048021;28;20025;-75
2023/10/03 01:41:23;;;;;;;40.13;30.50;;;18.60;7.30;;;;;;5057080;28;20029;-75
2023/10/03 01:43:49;;;;;;;38.67;28.02;;;18.50;5.60;;;;;;5043541;28;20108;-75
2023/10/03 01:46:17;;;;;;;34.17;28.42;;;18.50;7.90;;;;;;5050448;28;20032;-75
2023/10/03 01:48:43;;;;;;;37.00;30.02;;;18.50;7.40;;;;;;5028370;28;20025;-75
2023/10/03 01:51:09;;;;;;;40.22;29.23;;;18.50;7.10;;;;;;5044986;28;20033;-75
2023/10/03 01:53:36;;;;;;;38.30;29.10;;;18.50;9.60;;;;;;5040845;28;20033;-75
2023/10/03 01:56:03;;;;;;;39.28;29.77;;;18.50;8.60;;;;;;5047334;28;20408;-75
2023/10/03 01:58:30;;;;;;;38.50;30.90;;;18.50;8.90;;;;;;5025171;28;20389;-75
2023/10/03 02:00:56;;;;;;;43.22;30.85;;;18.50;7.80;;;;;;5044338;28;20445;-75
2023/10/03 02:03:23;;;;;;;36.50;30.08;;;18.50;9.20;;;;;;5046562;28;20207;-75
2023/10/03 02:05:49;;;;;;;46.50;30.52;;;18.40;11.70;;;;;;5044828;28;20582;-75
2023/10/03 02:08:15;;;;;;;43.28;30.85;;;18.40;12.70;;;;;;5041536;28;20035;-75
2023/10/03 02:10:45;;;;;;;36.05;30.13;;;18.40;13.60;;;;;;5040570;28;20044;-75
2023/10/03 02:13:14;;;;;;;41.80;30.52;;;18.40;16.60;;;;;;5038076;28;20035;-75
2023/10/03 02:15:42;;;;;;;35.38;30.27;;;18.40;12.90;;;;;;5048195;28;20346;-75
2023/10/03 02:18:18;;;;;;;36.35;30.30;;;18.40;13.40;;;;;;5048689;28;20109;-75
2023/10/03 02:20:53;;;;;;;41.47;31.80;;;18.40;13.40;;;;;;5046683;28;20112;-75
2023/10/03 02:23:23;;;;;;;41.97;32.28;;;18.40;14.80;;;;;;5043379;28;20100;-75
2023/10/03 02:25:53;;;;;;;40.42;31.77;;;18.40;14.60;;;;;;5045544;28;20024;-75
2023/10/03 02:28:20;;;;;;;45.05;32.08;;;18.40;16.10;;;;;;5047548;28;20060;-75
2023/10/03 02:30:48;;;;;;;45.38;32.50;;;18.40;14.60;;;;;;5026003;28;20029;-75
2023/10/03 02:33:15;;;;;;;42.25;32.35;;;18.40;14.40;;;;;;5037650;28;20477;-75
2023/10/03 02:35:46;;;;;;;39.90;31.35;;;18.40;12.70;;;;;;5057386;28;20016;-75
2023/10/03 02:38:23;;;;;;;42.70;32.15;;;18.40;11.10;;;;;;5050549;28;20022;-75
2023/10/03 02:40:57;;;;;;;46.47;31.48;;;18.40;10.50;;;;;;5044972;28;20013;-75
2023/10/03 02:43:24;;;;;;;42.05;33.13;;;18.50;11.10;;;;;;5020808;28;20029;-75
2023/10/03 02:45:50;;;;;;;48.10;33.80;;;18.40;11.20;;;;;;5053092;28;20029;-75
2023/10/03 02:48:16;;;;;;;48.33;34.65;;;18.50;10.50;;;;;;5047230;28;20033;-75
2023/10/03 02:50:47;;;;;;;46.05;33.60;;;18.50;9.40;;;;;;5043035;28;20346;-75
2023/10/03 02:53:14;;;;;;;45.72;34.05;;;18.50;10.20;;;;;;5051956;28;20040;-75
2023/10/03 02:55:41;;;;;;;48.17;33.78;;;18.40;12.20;;;;;;5042631;28;20531;-75
2023/10/03 02:58:09;;;;;;;43.90;33.35;;;18.50;11.50;;;;;;5043267;28;20070;-75
2023/10/03 03:00:37;;;;;;;44.33;35.58;;;18.40;12.80;;;;;;5044152;28;20605;-75
2023/10/03 03:03:06;;;;;;;45.72;35.15;;;18.40;14.30;;;;;;5042668;28;20034;-75
2023/10/03 03:05:36;;;;;;;49.25;34.92;;;18.40;14.30;;;;;;5047786;28;20111;-75
2023/10/03 03:08:08;;;;;;;42.85;35.40;;;18.40;13.80;;;;;;5047655;28;20412;-75
2023/10/03 03:10:34;;;;;;;47.92;35.15;;;18.40;15.50;;;;;;5042735;28;20024;-75
2023/10/03 03:13:02;;;;;;;47.05;34.75;;;18.40;16.10;;;;;;5038765;28;20176;-74
2023/10/03 03:15:31;;;;;;;44.55;34.38;;;18.40;16.40;;;;;;5045392;28;20115;-75
2023/10/03 03:17:57;;;;;;;47.30;34.47;;;18.40;15.20;;;;;;5041924;28;20108;-75
2023/10/03 03:20:27;;;;;;;43.70;34.63;;;18.40;16.50;;;;;;5041935;28;20129;-75
2023/10/03 03:22:52;;;;;;;46.42;34.65;;;18.40;16.30;;;;;;5043553;28;20120;-75
2023/10/03 03:25:35;;;;;;;45.67;34.92;;;18.40;15.80;;;;;;5043619;28;20147;-75
2023/10/03 03:28:01;;;;;;;48.80;36.50;;;18.40;18.00;;;;;;5033574;28;20037;-75
2023/10/03 03:32:53;;;;;;;51.92;34.50;;;18.40;18.30;;;;;;5042684;28;20029;-75
2023/10/03 03:35:23;;;;;;;46.20;37.53;;;18.40;17.30;;;;;;5044368;28;20497;-75
2023/10/03 03:37:48;;;;;;;49.80;38.08;;;18.40;17.40;;;;;;5039106;28;20022;-76
2023/10/03 03:40:29;;;;;;;48.97;36.40;;;18.40;15.90;;;;;;5044097;28;20078;-75
2023/10/03 03:42:58;;;;;;;45.90;35.53;;;18.40;16.80;;;;;;5033269;28;20029;-75
2023/10/03 03:45:26;;;;;;;44.50;34.78;;;18.40;18.10;;;;;;5045613;28;20107;-75
2023/10/03 03:47:57;;;;;;;49.72;37.78;;;18.40;20.70;;;;;;5042514;28;20021;-74
2023/10/03 03:50:23;;;;;;;49.15;36.95;;;18.40;22.20;;;;;;5025413;28;20401;-75
2023/10/03 03:52:49;;;;;;;48.45;37.92;;;18.40;20.70;;;;;;5033654;28;20612;-75
2023/10/03 03:55:19;;;;;;;50.92;37.75;;;18.40;21.90;;;;;;5045581;28;20188;-75
2023/10/03 03:57:51;;;;;;;52.40;37.33;;;18.40;20.90;;;;;;5048904;28;20025;-75
2023/10/03 04:00:22;;;;;;;49.92;37.45;;;18.40;24.70;;;;;;5044753;28;20477;-75
2023/10/03 04:02:48;;;;;;;47.15;37.08;;;18.40;26.30;;;;;;5038352;28;20025;-75
2023/10/03 04:05:20;;;;;;;52.10;38.97;;;18.30;27.20;;;;;;5046483;28;20027;-74
2023/10/03 04:07:46;;;;;;;;;;;18.40;27.50;;;;;;5054413;28;20036;-75
2023/10/03 04:10:13;;;;;;;49.58;37.30;;;18.40;26.40;;;;;;5044838;28;19923;-75
2023/10/03 04:12:43;;;;;;;52.47;39.17;;;18.30;28.70;;;;;;5051116;28;20021;-75
2023/10/03 04:15:18;;;;;;;50.45;37.55;;;18.30;29.40;;;;;;5044792;28;20379;-75
2023/10/03 04:17:44;;;;;;;51.72;38.63;;;18.30;35.20;;;;;;5052997;28;20025;-75
2023/10/03 04:20:30;;;;;;;54.60;40.17;;;18.30;36.50;;;;;;5044766;28;20025;-75
2023/10/03 04:22:57;;;;;;;51.17;39.75;;;18.30;38.50;;;;;;5048502;28;20116;-75
2023/10/03 04:25:22;;;;;;;53.65;40.40;;;18.20;40.40;;;;;;5041784;28;20018;-75
2023/10/03 04:27:53;;;;;;;53.65;39.58;;;18.20;41.70;;;;;;5043336;28;20040;-75
2023/10/03 04:30:21;;;;;;;53.88;41.35;;;18.20;44.20;;;;;;5046248;28;20029;-75
2023/10/03 04:32:47;;;;;;;60.72;42.90;;;18.20;43.70;;;;;;5055308;28;20021;-75
2023/10/03 04:35:14;;;;;;;56.95;40.92;;;18.20;46.70;;;;;;5046948;28;20507;-75
2023/10/03 04:37:43;;;;;;;54.88;40.85;;;18.20;46.50;;;;;;5046820;28;20020;-74
2023/10/03 04:40:28;;;;;;;54.67;41.15;;;18.20;49.40;;;;;;5042084;28;20480;-75
2023/10/03 04:42:55;;;;;;;56.53;41.28;;;18.20;47.90;;;;;;5050568;28;20492;-75
2023/10/03 04:45:21;;;;;;;62.88;42.03;;;18.20;47.50;;;;;;5032812;28;20230;-75
2023/10/03 04:47:48;;;;;;;53.88;41.17;;;18.20;51.40;;;;;;5019041;28;20029;-75
2023/10/03 04:50:18;;;;;;;57.78;41.20;;;18.20;49.50;;;;;;5041794;28;20018;-75
2023/10/03 04:52:50;;;;;;;59.55;42.35;;;18.20;48.10;;;;;;5036421;28;20085;-75
2023/10/03 04:55:16;;;;;;;;;;;18.20;49.60;;;;;;5043405;28;20096;-75
2023/10/03 04:57:47;;;;;;;56.72;42.03;;;18.30;48.80;;;;;;5034424;28;19905;-75
2023/10/03 05:00:17;;;;;;;62.25;43.75;;;18.20;48.00;;;;;;5043429;28;20496;-75
2023/10/03 05:02:47;;;;;;;62.20;43.38;;;18.20;49.20;;;;;;5049212;28;20025;-75
2023/10/03 05:05:25;;;;;;;59.15;44.08;;;18.20;51.30;;;;;;5033138;28;20031;-75
2023/10/03 05:07:58;;;;;;;60.13;44.67;;;18.20;54.40;;;;;;5050066;28;20062;-75
2023/10/03 05:10:25;;;;;;;64.93;45.33;;;18.10;57.30;;;;;;5047190;28;20041;-75
2023/10/03 05:12:52;;;;;;;57.95;42.70;;;18.10;62.40;;;;;;5051388;28;20025;-75
2023/10/03 05:15:22;;;;;;;64.32;44.28;;;18.10;59.40;;;;;;5050661;28;20025;-75
2023/10/03 05:17:48;;;;;;;64.57;45.70;;;18.10;61.40;;;;;;5049090;28;20063;-75
2023/10/03 05:20:18;;;;;;;63.22;44.83;;;18.10;61.50;;;;;;5051024;28;20036;-75
2023/10/03 05:22:47;;;;;;;59.15;44.47;;;18.10;60.60;;;;;;5051014;28;20108;-75
2023/10/03 05:25:17;;;;;;;65.40;44.92;;;18.10;63.80;;;;;;5052450;28;20031;-75
2023/10/03 05:27:44;;;;;;;63.38;44.40;;;18.10;66.50;;;;;;5046886;28;20116;-75
2023/10/03 05:30:11;;;;;;;64.28;45.78;;;18.10;69.00;;;;;;5047717;28;20704;-75
2023/10/03 05:32:38;;;;;;;58.47;43.53;;;18.00;72.20;;;;;;5045883;28;20063;-75
2023/10/03 05:35:07;;;;;;;65.30;46.47;;;18.00;75.60;;;;;;5047072;28;20021;-75
2023/10/03 05:37:34;;;;;;;62.35;46.30;;;18.00;79.80;;;;;;5053284;28;20028;-75
2023/10/03 05:40:15;;;;;;;65.53;47.42;;;18.00;79.30;;;;;;5046271;28;20477;-74
2023/10/03 05:42:45;;;;;;;67.05;45.75;;;18.10;77.50;;;;;;5045980;28;20480;-75
2023/10/03 05:45:14;;;;;;;64.47;45.85;;;18.10;76.30;;;;;;5044735;28;20048;-75
2023/10/03 05:47:44;;;;;;;67.30;46.80;;;18.10;77.90;;;;;;5043623;28;20103;-75
2023/10/03 05:50:16;;;;;;;63.50;46.30;;;18.10;75.60;;;;;;5036388;28;20373;-75
2023/10/03 05:52:44;;;;;;;62.63;46.35;;;18.10;77.10;;;;;;5048264;28;20053;-75
2023/10/03 05:55:10;;;;;;;68.38;46.60;;;18.10;77.30;;;;;;5033249;28;20439;-75
2023/10/03 05:57:37;;;;;;;63.53;47.22;;;18.10;75.90;;;;;;5043562;28;20021;-75
2023/10/03 06:00:11;;;;;;;61.28;45.72;;;18.10;78.20;;;;;;5044588;28;20098;-75
2023/10/03 06:02:39;;;;;;;65.07;47.83;;;18.10;78.10;;;;;;5047789;28;20099;-75
2023/10/03 06:05:09;;;;;;;66.20;45.88;;;18.20;79.30;;;;;;5047379;28;20025;-75
2023/10/03 06:07:38;;;;;;;64.65;46.63;;;18.20;78.20;;;;;;5052268;28;20116;-75
2023/10/03 06:10:04;;;;;;;71.55;46.22;;;18.20;78.20;;;;;;5044924;28;20056;-75
2023/10/03 06:12:33;;;;;;;67.03;46.78;;;18.20;79.20;;;;;;5044535;28;20021;-75
2023/10/03 06:14:59;;;;;;;66.15;47.65;;;18.20;77.80;;;;;;5043806;28;20020;-75
2023/10/03 06:17:25;;;;;;;62.33;45.80;;;18.30;72.60;;;;;;5044649;28;20412;-75
2023/10/03 06:19:51;;;;;;;64.13;45.30;;;18.40;71.30;;;;;;5044212;28;20463;-75
2023/10/03 06:22:17;;;;;;;64.32;47.28;;;18.40;70.80;;;;;;5052773;28;20111;-75
2023/10/03 06:24:43;;;;;;;67.82;47.70;;;18.40;68.50;;;;;;5045102;28;20104;-75
2023/10/03 06:27:10;;;;;;;67.68;45.08;;;18.50;68.50;;;;;;5048408;28;20437;-75
2023/10/03 06:29:38;;;;;;;61.30;46.08;;;18.50;67.40;;;;;;5044479;28;20394;-75
2023/10/03 06:32:04;;;;;;;65.72;45.13;;;18.50;61.80;;;;;;5035150;28;20032;-75
2023/10/03 06:34:30;;;;;;;65.72;45.78;;;18.60;61.20;;;;;;5045000;28;20021;-75
2023/10/03 06:36:56;;;;;;;63.78;45.70;;;18.60;62.70;;;;;;5028800;28;20071;-75
2023/10/03 06:39:22;;;;;;;62.70;44.83;;;18.60;65.80;;;;;;5023828;28;20473;-75
2023/10/03 06:41:47;;;;;;;62.42;44.10;;;18.70;68.00;;;;;;5052068;28;20101;-75
2023/10/03 06:44:13;;;;;;;64.40;43.28;;;18.70;66.10;;;;;;5028337;28;20072;-75
2023/10/03 06:46:41;;;;;;;55.50;42.80;;;18.70;65.40;;;;;;5036010;28;20025;-75
2023/10/03 06:49:10;;;;;;;57.92;43.38;;;18.70;70.00;;;;;;5044130;28;20024;-74
2023/10/03 06:51:36;;;;;;;60.97;43.17;;;18.80;65.80;;;;;;5036759;28;20028;-74
2023/10/03 06:54:03;;;;;;;57.42;42.45;;;18.80;73.00;;;;;;5037967;28;20435;-75
2023/10/03 06:56:32;;;;;;;75.68;42.63;;;18.90;73.90;;;;;;5040071;28;20435;-75
2023/10/03 06:59:02;;;;;;;62.20;42.20;;;18.90;70.50;;;;;;5041976;28;20491;-75
2023/10/03 07:01:27;;;;;;;61.00;41.67;;;19.00;67.80;;;;;;5018758;28;20424;-75
2023/10/03 07:03:54;;;;;;;53.35;39.20;;;19.00;64.10;;;;;;5039201;28;20039;-75
2023/10/03 07:06:20;;;;;;;51.53;39.40;;;19.10;60.80;;;;;;5027384;28;20055;-75
2023/10/03 07:08:46;;;;;;;50.60;39.40;;;19.10;58.70;;;;;;5044947;28;20117;-75
2023/10/03 07:11:16;;;;;;;53.97;40.08;;;19.20;58.40;;;;;;5037568;28;20099;-75
2023/10/03 07:13:42;;;;;;;52.33;38.13;;;19.20;52.40;;;;;;5030249;28;20025;-75
2023/10/03 07:16:09;;;;;;;52.38;37.95;;;19.30;52.40;;;;;;5041129;28;20053;-75
2023/10/03 07:18:35;;;;;;;56.22;39.75;;;19.30;58.80;;;;;;5038573;28;20082;-75
2023/10/03 07:21:03;;;;;;;52.53;37.47;;;19.30;64.70;;;;;;5041050;28;20032;-75
2023/10/03 07:23:29;;;;;;;48.00;35.22;;;19.40;62.80;;;;;;5027882;28;20029;-75
2023/10/03 07:25:55;;;;;;;51.03;36.63;;;19.40;53.20;;;;;;5039535;28;20513;-75
2023/10/03 07:28:20;;;;;;;47.45;35.15;;;19.50;65.90;;;;;;5041720;28;20107;-75
2023/10/03 07:30:46;;;;;;;51.55;35.42;;;19.50;77.00;;;;;;5038900;28;20040;-75
2023/10/03 07:33:12;;;;;;;47.17;35.42;;;19.60;75.50;;;;;;5047770;28;20023;-75
2023/10/03 07:35:41;;;;;;;46.97;35.17;;;19.60;52.70;;;;;;5042285;28;20024;-75
2023/10/03 07:38:10;;;;;;;44.10;33.40;;;19.60;45.90;;;;;;5044893;28;20364;-75
2023/10/03 07:40:40;;;;;;;48.38;34.38;;;19.70;71.20;;;;;;5038466;28;20024;-75
2023/10/03 07:43:09;;;;;;;49.55;33.95;;;19.70;74.70;;;;;;5038103;28;20025;-75
2023/10/03 07:45:40;;;;;;;42.60;32.95;;;19.80;40.40;;;;;;5041481;28;20036;-75
2023/10/03 07:48:07;;;;;;;53.90;36.33;;;19.80;60.90;;;;;;5042052;28;20030;-75
2023/10/03 07:50:37;;;;;;;49.13;35.05;;;19.80;74.40;;;;;;5043815;28;20556;-75
2023/10/03 07:53:11;;;;;;;44.60;32.47;;;19.90;84.80;;;;;;5029702;28;20512;-75
2023/10/03 07:55:39;;;;;;;48.33;32.65;;;19.90;63.20;;;;;;5045347;28;20063;-75
2023/10/03 07:58:05;;;;;;;45.92;31.63;;;20.00;55.70;;;;;;5045842;28;20030;-75
2023/10/03 08:00:31;;;;;;;40.05;30.77;;;20.00;49.40;;;;;;5032742;28;20468;-75
2023/10/03 08:02:57;;;;;;;40.83;30.67;;;20.10;43.10;;;;;;5031266;28;20087;-75
2023/10/03 08:05:27;;;;;;;42.50;29.17;;;20.10;45.40;;;;;;5045299;28;20075;-75
2023/10/03 08:07:57;;;;;;;42.78;27.10;;;20.20;47.50;;;;;;5043816;28;20028;-75
2023/10/03 08:10:29;;;;;;;41.78;28.02;;;20.20;20.10;;;;;;5044153;28;20115;-75
2023/10/03 08:12:54;;;;;;;34.05;26.92;;;20.20;23.10;;;;;;5045062;28;20022;-75
2023/10/03 08:15:31;;;;;;;35.67;26.80;;;20.30;40.10;;;;;;5043772;28;20385;-75
2023/10/03 08:17:58;;;;;;;34.83;26.83;;;20.20;45.60;;;;;;5022721;28;20388;-75
2023/10/03 08:20:36;;;;;;;34.20;25.75;;;20.30;3.00;;;;;;5045389;28;20722;-75
2023/10/03 08:23:03;;;;;;;33.03;25.45;;;20.40;12.70;;;;;;5030851;28;20032;-75
2023/10/03 08:25:34;;;;;;;31.42;23.85;;;20.40;2.60;;;;;;5040589;28;20060;-75
2023/10/03 08:28:01;;;;;;;31.90;24.40;;;20.40;1.00;;;;;;5046270;28;20022;-75
2023/10/03 08:30:30;;;;;;;32.75;24.98;;;20.40;1.00;;;;;;5038813;28;20029;-75
2023/10/03 08:33:05;;;;;;;28.42;22.98;;;20.50;1.00;;;;;;5037252;28;20076;-75
2023/10/03 08:35:40;;;;;;;31.45;22.75;;;20.50;1.00;;;;;;5037735;28;20060;-75
2023/10/03 08:38:12;;;;;;;29.73;23.00;;;20.60;1.00;;;;;;5041405;28;20020;-75
2023/10/03 08:40:41;;;;;;;33.20;22.70;;;20.60;1.00;;;;;;5023832;28;20095;-75
2023/10/03 08:43:12;;;;;;;29.08;22.13;;;20.60;1.00;;;;;;5044193;28;20029;-75
2023/10/03 08:45:52;;;;;;;27.05;20.83;;;20.70;1.00;;;;;;5028300;28;20362;-75
2023/10/03 08:48:24;;;;;;;29.20;21.98;;;20.70;1.00;;;;;;5023168;28;20034;-75
2023/10/03 08:50:53;;;;;;;28.02;20.75;;;20.70;1.00;;;;;;5025375;28;20111;-75
2023/10/03 08:53:31;;;;;;;25.77;19.92;;;20.80;1.00;;;;;;5041209;28;20107;-75
2023/10/03 08:56:05;;;;;;;26.80;18.08;;;20.80;1.00;;;;;;5037131;28;20033;-73
2023/10/03 08:58:32;;;;;;;24.92;18.48;;;20.80;1.00;;;;;;5038690;28;20382;-73
2023/10/03 09:01:02;;;;;;;22.42;18.05;;;20.80;1.00;;;;;;5045362;28;20032;-74
2023/10/03 09:03:48;;;;;;;21.77;19.05;;;20.80;1.00;;;;;;5047668;28;20116;-74
2023/10/03 09:06:21;;;;;;;36.88;24.77;;;20.80;1.00;;;;;;5048618;28;20107;-73
2023/10/03 09:08:51;;;;;;;36.55;25.55;;;20.90;1.00;;;;;;5043044;28;20033;-73
2023/10/03 09:11:18;;;;;;;37.70;25.48;;;20.90;1.00;;;;;;5046661;28;20056;-75
2023/10/03 09:13:48;;;;;;;28.45;23.65;;;21.00;1.00;;;;;;5045092;28;20013;-75
2023/10/03 09:16:19;;;;;;;30.73;22.60;;;21.10;1.00;;;;;;5027596;28;20037;-75
2023/10/03 09:18:50;;;;;;;33.23;25.93;;;21.10;1.00;;;;;;5048636;28;20013;-75
2023/10/03 09:21:23;;;;;;;37.63;25.60;;;21.20;1.00;;;;;;5030132;28;20275;-75
2023/10/03 09:24:09;;;;;;;33.85;26.30;;;21.20;1.00;;;;;;5043970;28;20025;-75
2023/10/03 09:27:07;;;;;;;38.97;25.58;;;21.20;1.00;;;;;;5046733;28;20108;-75
2023/10/03 09:29:30;;;;;;;35.97;26.33;;;21.30;1.00;;;;;;5041119;28;20125;-75
2023/10/03 09:32:15;;;;;;;50.55;25.65;;;21.30;1.00;;;;;;5045840;28;20029;-75
2023/10/03 09:34:46;;;;;;;36.85;24.67;;;21.30;1.00;;;;;;5043166;28;20024;-75
2023/10/03 09:37:13;;;;;;;33.95;23.63;;;21.40;1.00;;;;;;5057222;28;20086;-75
2023/10/03 09:39:40;;;;;;;36.30;25.25;;;21.40;1.00;;;;;;5040629;28;20494;-75
2023/10/03 09:42:15;;;;;;;41.72;26.67;;;21.50;1.00;;;;;;5037710;28;20029;-75
2023/10/03 09:44:43;;;;;;;38.92;26.13;;;21.60;1.00;;;;;;5043966;28;20024;-75
2023/10/03 09:47:09;;;;;;;38.58;26.75;;;21.70;1.00;;;;;;5051532;28;20044;-75
2023/10/03 09:49:38;;;;;;;32.78;25.08;;;21.70;1.00;;;;;;5032939;28;20017;-75
2023/10/03 09:52:25;;;;;;;34.42;25.13;;;21.70;1.00;;;;;;5064766;28;20154;-75
2023/10/03 09:54:54;;;;;;;32.50;26.08;;;21.70;1.00;;;;;;5045858;28;20049;-75
2023/10/03 09:57:24;;;;;;;35.70;25.65;;;21.80;1.00;;;;;;5058923;28;20027;-75
2023/10/03 09:59:50;;;;;;;35.15;25.10;;;21.80;1.00;;;;;;5045427;28;20029;-75
2023/10/03 10:02:55;;;;;;;34.45;23.85;;;21.90;1.00;;;;;;5040491;28;20033;-75
2023/10/03 10:05:21;;;;;;;29.10;22.63;;;22.00;1.00;;;;;;5041031;28;20403;-75
2023/10/03 10:08:13;;;;;;;41.17;22.88;;;22.00;1.00;;;;;;5047345;28;20033;-75
2023/10/03 10:10:41;;;;;;;;;;;22.10;1.00;;;;;;5043277;28;20040;-75
2023/10/03 10:13:20;;;;;;;29.27;23.73;;;22.10;1.00;;;;;;5026383;28;19909;-75
2023/10/03 10:16:03;;;;;;;33.20;22.88;;;22.20;99.90;;;;;;5051861;28;20116;-75
2023/10/03 10:18:44;;;;;;;32.22;22.88;;;22.30;1.00;;;;;;5028349;28;20373;-75
2023/10/03 10:21:37;;;;;;;37.08;23.20;;;22.30;1.00;;;;;;5050532;28;20021;-75
2023/10/03 10:24:20;;;;;;;38.05;25.60;;;22.30;1.00;;;;;;5047708;28;20358;-75
2023/10/03 10:26:52;;;;;;;43.25;29.15;;;22.40;1.00;;;;;;5039025;28;20033;-75
2023/10/03 10:29:23;;;;;;;38.97;26.60;;;22.50;1.00;;;;;;5044262;28;20031;-75
2023/10/03 10:31:57;;;;;;;49.97;29.88;;;22.70;99.90;;;;;;5051868;28;20025;-75
2023/10/03 10:34:40;;;;;;;46.13;28.83;;;22.80;99.90;;;;;;5049312;28;20017;-75
2023/10/03 10:37:11;;;;;;;46.35;30.48;;;22.80;99.90;;;;;;5041096;28;20138;-75
2023/10/03 10:39:56;;;;;;;57.85;33.05;;;23.00;99.90;;;;;;5040371;28;20405;-75
2023/10/03 10:42:26;;;;;;;49.60;31.30;;;23.20;99.90;;;;;;5062440;28;20088;-75
2023/10/03 10:45:03;;;;;;;46.63;30.25;;;23.30;99.90;;;;;;5042997;28;20334;-76
2023/10/03 10:47:33;;;;;;;48.05;30.02;;;23.40;99.90;;;;;;5052296;28;20020;-76
2023/10/03 10:50:00;;;;;;;45.85;31.13;;;23.50;99.90;;;;;;5044210;28;20570;-75
2023/10/03 10:52:30;;;;;;;47.85;31.65;;;23.40;99.80;;;;;;5042337;28;20017;-75
2023/10/03 10:54:56;;;;;;;50.78;34.60;;;23.30;99.90;;;;;;5042141;28;20025;-75
2023/10/03 10:57:26;;;;;;;50.67;34.42;;;23.40;99.90;;;;;;5052906;28;20036;-75
2023/10/03 10:59:53;;;;;;;53.15;34.70;;;23.30;99.90;;;;;;5045328;28;20080;-75
2023/10/03 11:02:20;;;;;;;53.35;37.40;;;23.30;99.90;;;;;;5046154;28;20017;-75
2023/10/03 11:04:56;;;;;;;51.22;35.58;;;23.40;99.90;;;;;;5041301;28;20033;-75
2023/10/03 11:07:23;;;;;;;54.60;37.22;;;23.40;99.90;;;;;;5051803;28;20036;-75
2023/10/03 11:09:51;;;;;;;54.55;36.00;;;23.50;99.90;;;;;;5022915;28;20075;-75
2023/10/03 11:12:27;;;;;;;47.85;34.22;;;23.50;99.90;;;;;;5049446;28;20125;-75
2023/10/03 11:14:55;;;;;;;57.63;39.63;;;23.60;99.90;;;;;;5039904;28;20393;-75
2023/10/03 11:17:25;;;;;;;55.80;37.58;;;23.60;99.90;;;;;;5041224;28;20029;-75
2023/10/03 11:19:55;;;;;;;60.13;38.42;;;23.60;99.90;;;;;;5041902;28;20014;-75
2023/10/03 11:22:22;;;;;;;56.22;37.13;;;23.60;99.90;;;;;;5052901;28;20074;-75
2023/10/03 11:24:48;;;;;;;52.70;35.40;;;23.70;99.90;;;;;;5044099;28;20028;-75
2023/10/03 11:27:31;;;;;;;60.80;38.30;;;23.80;99.90;;;;;;5036231;28;20033;-75
2023/10/03 11:29:57;;;;;;;59.53;39.30;;;23.80;99.90;;;;;;5043132;28;20032;-75
2023/10/03 11:32:30;;;;;;;52.38;36.88;;;23.90;99.90;;;;;;5044048;28;20028;-76
2023/10/03 11:34:57;;;;;;;60.67;39.33;;;23.90;99.90;;;;;;5023698;28;20030;-75
2023/10/03 11:37:44;;;;;;;57.42;38.67;;;24.00;99.90;;;;;;5050228;28;20025;-76
2023/10/03 11:40:16;;;;;;;61.05;39.83;;;24.10;99.90;;;;;;5024995;28;20028;-75
2023/10/03 11:42:51;;;;;;;67.15;43.00;;;24.00;99.90;;;;;;5031994;28;20421;-75
2023/10/03 11:45:28;;;;;;;61.58;41.15;;;24.00;82.40;;;;;;5047534;28;20497;-75
2023/10/03 11:48:30;;;;;;;59.90;39.20;;;24.00;99.90;;;;;;5035713;28;20029;-75
2023/10/03 11:50:58;;;;;;;71.38;43.35;;;24.00;99.90;;;;;;5017814;28;20042;-75
2023/10/03 11:53:24;;;;;;;63.90;41.22;;;24.10;99.90;;;;;;5044538;28;20408;-75
2023/10/03 11:55:52;;;;;;;63.95;43.50;;;24.20;99.90;;;;;;5049937;28;20127;-75
2023/10/03 11:58:18;;;;;;;62.50;42.35;;;24.20;99.90;;;;;;5047064;28;20535;-75
2023/10/03 12:00:44;;;;;;;64.45;43.45;;;24.20;99.90;;;;;;5031405;28;20480;-75
2023/10/03 12:03:11;;;;;;;59.58;42.03;;;24.20;99.90;;;;;;5052099;28;20025;-75
2023/10/03 12:05:37;;;;;;;62.85;43.40;;;24.20;99.90;;;;;;5042555;28;20381;-75
2023/10/03 12:08:05;;;;;;;65.53;46.00;;;24.20;99.90;;;;;;5043818;28;20425;-76
2023/10/03 12:10:31;;;;;;;69.38;46.30;;;24.30;58.90;;;;;;5045305;28;20029;-75
2023/10/03 12:13:00;;;;;;;65.75;43.88;;;24.20;64.50;;;;;;5041808;28;20459;-75
2023/10/03 12:15:25;;;;;;;62.33;45.10;;;24.30;99.90;;;;;;5044808;28;20586;-75
2023/10/03 12:17:52;;;;;;;67.57;45.75;;;24.30;21.00;;;;;;5048424;28;20151;-75
2023/10/03 12:20:19;;;;;;;72.40;46.28;;;24.30;29.00;;;;;;5045149;28;20029;-75
2023/10/03 12:22:46;;;;;;;72.25;46.72;;;24.40;25.20;;;;;;5046450;28;20029;-75
2023/10/03 12:25:14;;;;;;;62.78;44.45;;;24.30;27.70;;;;;;5031557;28;20389;-75
2023/10/03 12:27:41;;;;;;;66.93;43.53;;;24.40;99.90;;;;;;5049482;28;20496;-75
2023/10/03 12:30:10;;;;;;;72.65;44.95;;;24.40;92.30;;;;;;5043401;28;20104;-75
2023/10/03 12:32:40;;;;;;;64.07;42.28;;;24.50;1.10;;;;;;5044343;28;20079;-75
2023/10/03 12:35:07;;;;;;;70.32;45.35;;;24.50;1.00;;;;;;5044884;28;20154;-75
2023/10/03 12:37:34;;;;;;;68.60;44.95;;;24.50;1.00;;;;;;5052870;28;20013;-75
2023/10/03 12:40:13;;;;;;;66.88;44.58;;;24.60;1.00;;;;;;5036651;28;20134;-75
2023/10/03 12:42:41;;;;;;;66.13;45.70;;;24.60;1.00;;;;;;5057311;28;20571;-75
2023/10/03 12:45:07;;;;;;;63.00;43.45;;;24.50;1.00;;;;;;5048240;28;20025;-75